createdAt,value
2022-08-07T00:02:40.430Z,68.38
2022-08-07T00:05:03.959Z,68.08
2022-08-07T00:07:40.360Z,67.72
2022-08-07T00:10:30.448Z,68.24
2022-08-07T00:13:02.100Z,68.15
2022-08-07T00:15:35.869Z,68.21
2022-08-07T00:18:03.757Z,68.74
2022-08-07T00:20:34.488Z,69.04
2022-08-07T00:23:03.062Z,70.10
2022-08-07T00:25:37.508Z,69.93
2022-08-07T00:28:08.495Z,70.53
2022-08-07T00:30:37.693Z,70.42
2022-08-07T00:33:05.689Z,70.93
2022-08-07T00:35:39.258Z,70.75
2022-08-07T00:38:06.501Z,69.96
2022-08-07T00:40:39.837Z,69.88
2022-08-07T00:43:10.535Z,70.24
2022-08-07T00:46:00.323Z,70.89
2022-08-07T00:48:33.511Z,71.26
2022-08-07T00:51:02.808Z,71.59
2022-08-07T00:53:38.925Z,71.34
2022-08-07T00:56:20.255Z,71.55
2022-08-07T00:58:49.588Z,72.43
2022-08-07T01:01:18.766Z,72.11
2022-08-07T01:03:56.283Z,73.01
2022-08-07T01:06:29.221Z,73.05
2022-08-07T01:08:58.557Z,72.59
2022-08-07T01:12:23.931Z,72.80
2022-08-07T01:14:28.535Z,72.77
2022-08-07T01:16:56.915Z,73.45
2022-08-07T01:19:32.524Z,72.41
2022-08-07T01:22:03.661Z,73.16
2022-08-07T01:24:36.151Z,73.12
2022-08-07T01:27:03.835Z,74.29
2022-08-07T01:29:33.925Z,73.43
2022-08-07T01:32:12.265Z,73.06
2022-08-07T01:34:44.520Z,73.98
2022-08-07T01:37:17.261Z,74.24
2022-08-07T01:39:49.472Z,74.89
2022-08-07T01:42:38.115Z,74.22
2022-08-07T01:45:18.301Z,73.35
2022-08-07T01:48:18.476Z,72.49
2022-08-07T01:50:43.147Z,72.44
2022-08-07T01:53:11.752Z,72.72
2022-08-07T01:55:57.038Z,73.49
2022-08-07T01:58:27.395Z,73.21
2022-08-07T02:01:24.985Z,72.95
2022-08-07T02:04:02.348Z,73.28
2022-08-07T02:06:34.533Z,73.06
2022-08-07T02:09:05.372Z,73.64
2022-08-07T02:12:03.683Z,74.11
2022-08-07T02:14:35.783Z,74.20
2022-08-07T02:17:04.137Z,73.97
2022-08-07T02:20:06.815Z,73.98
2022-08-07T02:22:25.620Z,73.84
2022-08-07T02:24:59.596Z,75.29
2022-08-07T02:27:34.295Z,75.64
2022-08-07T02:30:07.137Z,75.82
2022-08-07T02:32:39.547Z,74.95
2022-08-07T02:36:27.254Z,74.96
2022-08-07T02:38:22.821Z,75.27
2022-08-07T02:41:00.072Z,74.57
2022-08-07T02:43:28.602Z,74.44
2022-08-07T02:46:02.759Z,75.17
2022-08-07T02:48:34.509Z,75.06
2022-08-07T02:51:28.859Z,75.43
2022-08-07T02:54:03.207Z,76.52
2022-08-07T02:56:33.230Z,75.38
2022-08-07T02:59:04.733Z,76.24
2022-08-07T03:01:40.062Z,74.67
2022-08-07T03:04:12.432Z,74.55
2022-08-07T03:06:48.033Z,75.58
2022-08-07T03:09:43.483Z,75.73
2022-08-07T03:12:05.317Z,76.01
2022-08-07T03:14:36.230Z,77.73
2022-08-07T03:17:08.766Z,77.08
2022-08-07T03:19:37.131Z,76.74
2022-08-07T03:22:07.145Z,77.41
2022-08-07T03:24:36.740Z,77.51
2022-08-07T03:27:10.474Z,76.47
2022-08-07T03:29:57.129Z,77.04
2022-08-07T03:32:32.218Z,76.87
2022-08-07T03:35:18.069Z,76.32
2022-08-07T03:37:53.943Z,76.85
2022-08-07T03:40:27.454Z,75.66
2022-08-07T03:43:04.114Z,75.80
2022-08-07T03:45:43.513Z,76.24
2022-08-07T03:48:20.075Z,76.73
2022-08-07T03:50:56.115Z,76.53
2022-08-07T03:53:49.883Z,77.54
2022-08-07T03:56:18.567Z,76.03
2022-08-07T03:59:08.993Z,76.14
2022-08-07T04:01:45.434Z,77.74
2022-08-07T04:04:17.379Z,77.20
2022-08-07T04:06:50.872Z,76.25
2022-08-07T04:09:19.977Z,76.40
2022-08-07T04:12:26.570Z,77.36
2022-08-07T04:14:43.879Z,75.94
2022-08-07T04:17:20.902Z,76.46
2022-08-07T04:20:10.245Z,76.28
2022-08-07T04:22:39.246Z,77.12
2022-08-07T04:25:23.515Z,75.24
2022-08-07T04:27:59.447Z,75.83
2022-08-07T04:30:35.790Z,75.34
2022-08-07T04:33:15.478Z,75.72
2022-08-07T04:35:50.545Z,76.08
2022-08-07T04:38:22.973Z,75.10
2022-08-07T04:40:56.650Z,74.36
2022-08-07T04:44:12.023Z,75.05
2022-08-07T04:46:59.697Z,75.15
2022-08-07T04:50:05.807Z,76.02
2022-08-07T04:52:55.889Z,75.59
2022-08-07T04:58:14.161Z,76.08
2022-08-07T05:01:50.454Z,75.11
2022-08-07T05:04:59.531Z,74.23
2022-08-07T05:08:10.472Z,73.67
2022-08-07T05:10:49.308Z,73.62
2022-08-07T05:14:52.255Z,72.21
2022-08-07T05:16:29.469Z,72.14
2022-08-07T05:19:07.076Z,72.61
2022-08-07T05:21:59.813Z,71.76
2022-08-07T05:24:30.372Z,71.25
2022-08-07T05:27:00.457Z,70.70
2022-08-07T05:29:38.814Z,70.32
2022-08-07T05:32:19.600Z,69.28
2022-08-07T05:34:48.756Z,69.48
2022-08-07T05:37:25.491Z,68.19
2022-08-07T05:40:13.581Z,68.86
2022-08-07T05:42:40.084Z,67.18
2022-08-07T05:45:26.196Z,67.36
2022-08-07T05:48:01.459Z,67.41
2022-08-07T05:50:32.061Z,66.96
2022-08-07T05:53:02.790Z,67.21
2022-08-07T05:56:03.030Z,66.41
2022-08-07T05:58:36.350Z,66.42
2022-08-07T06:01:10.496Z,67.11
2022-08-07T06:04:01.224Z,65.68
2022-08-07T06:06:29.386Z,65.22
2022-08-07T06:08:59.248Z,64.48
2022-08-07T06:11:31.687Z,64.37
2022-08-07T06:14:12.620Z,64.22
2022-08-07T06:16:56.041Z,64.49
2022-08-07T06:19:52.169Z,63.65
2022-08-07T06:22:24.051Z,63.28
2022-08-07T06:24:58.476Z,62.30
2022-08-07T06:27:44.502Z,61.64
2022-08-07T06:30:32.427Z,61.29
2022-08-07T06:33:15.582Z,61.82
2022-08-07T06:35:48.077Z,61.23
2022-08-07T06:38:33.415Z,60.98
2022-08-07T06:41:07.006Z,60.39
2022-08-07T06:43:39.277Z,61.23
2022-08-07T06:46:12.332Z,60.28
2022-08-07T06:48:42.131Z,59.76
2022-08-07T06:51:31.366Z,59.13
2022-08-07T06:55:33.772Z,58.50
2022-08-07T06:56:59.358Z,59.04
2022-08-07T07:00:13.122Z,58.19
2022-08-07T07:02:48.581Z,58.45
2022-08-07T07:06:03.226Z,56.55
2022-08-07T07:08:18.720Z,58.08
2022-08-07T07:10:56.971Z,56.71
2022-08-07T07:13:58.548Z,56.07
2022-08-07T07:16:45.240Z,55.09
2022-08-07T07:19:56.263Z,54.34
2022-08-07T07:22:34.163Z,53.12
2022-08-07T07:26:30.877Z,53.50
2022-08-07T07:28:07.761Z,52.62
2022-08-07T07:31:10.692Z,52.91
2022-08-07T07:33:39.475Z,53.26
2022-08-07T07:36:12.830Z,52.93
2022-08-07T07:38:43.381Z,53.03
2022-08-07T07:41:16.771Z,53.57
2022-08-07T07:44:16.961Z,53.95
2022-08-07T07:46:55.877Z,52.81
2022-08-07T07:50:35.829Z,52.07
2022-08-07T07:52:18.873Z,51.94
2022-08-07T07:54:51.183Z,51.13
2022-08-07T07:57:50.212Z,50.52
2022-08-07T08:00:21.181Z,50.98
2022-08-07T08:03:07.997Z,50.05
2022-08-07T08:05:54.339Z,48.95
2022-08-07T08:08:35.708Z,45.95
2022-08-07T08:11:16.560Z,44.61
2022-08-07T08:13:54.052Z,43.25
2022-08-07T08:16:29.997Z,41.42
2022-08-07T08:19:17.990Z,39.99
2022-08-07T08:22:14.546Z,40.01
2022-08-07T08:25:24.798Z,39.38
2022-08-07T08:28:03.633Z,40.13
2022-08-07T08:30:37.391Z,41.01
2022-08-07T08:33:16.886Z,41.39
2022-08-07T08:35:51.835Z,41.88
2022-08-07T08:38:31.189Z,42.34
2022-08-07T08:41:05.811Z,41.45
2022-08-07T08:43:58.806Z,41.23
2022-08-07T08:46:38.989Z,40.72
2022-08-07T08:49:33.563Z,41.23
2022-08-07T08:52:18.902Z,40.37
2022-08-07T08:55:21.065Z,40.49
2022-08-07T08:58:28.629Z,39.31
2022-08-07T09:01:15.113Z,38.19
2022-08-07T09:04:26.064Z,37.26
2022-08-07T09:07:27.086Z,36.65
2022-08-07T09:10:27.809Z,36.45
2022-08-07T09:13:37.982Z,37.26
2022-08-07T09:16:29.876Z,38.16
2022-08-07T09:19:51.419Z,37.00
2022-08-07T09:24:32.558Z,35.30
2022-08-07T09:26:20.852Z,35.13
2022-08-07T09:30:01.187Z,34.21
2022-08-07T09:32:26.342Z,33.79
2022-08-07T09:36:03.130Z,32.50
2022-08-07T09:38:56.804Z,32.99
2022-08-07T09:42:03.050Z,33.56
2022-08-07T09:47:37.257Z,32.74
2022-08-07T09:47:55.861Z,32.69
2022-08-07T09:50:54.646Z,32.29
2022-08-07T09:53:24.748Z,31.86
2022-08-07T09:56:04.612Z,31.74
2022-08-07T09:59:21.626Z,30.73
2022-08-07T10:02:24.207Z,31.31
2022-08-07T10:05:58.139Z,30.92
2022-08-07T10:08:57.396Z,31.06
2022-08-07T10:12:01.459Z,32.46
2022-08-07T10:15:18.657Z,32.34
2022-08-07T10:18:03.406Z,32.71
2022-08-07T10:21:29.680Z,33.21
2022-08-07T10:24:39.792Z,30.90
2022-08-07T10:27:45.723Z,30.40
2022-08-07T10:30:19.590Z,31.35
2022-08-07T10:34:14.068Z,31.68
2022-08-07T10:37:12.349Z,31.04
2022-08-07T10:40:05.993Z,30.91
2022-08-07T10:42:59.913Z,30.30
2022-08-07T10:45:57.750Z,29.32
2022-08-07T10:49:14.735Z,29.69
2022-08-07T10:52:13.518Z,29.48
2022-08-07T10:55:20.803Z,27.90
2022-08-07T10:58:33.343Z,28.17
2022-08-07T11:01:35.595Z,27.51
2022-08-07T11:05:16.066Z,28.02
2022-08-07T11:08:30.172Z,28.13
2022-08-07T11:11:09.645Z,28.01
2022-08-07T11:14:56.640Z,28.63
2022-08-07T11:17:23.317Z,28.45
2022-08-07T11:20:13.650Z,27.87
2022-08-07T11:23:30.266Z,28.08
2022-08-07T11:26:24.882Z,27.99
2022-08-07T11:29:41.036Z,28.14
2022-08-07T11:32:11.854Z,28.17
2022-08-07T11:34:49.655Z,27.78
2022-08-07T11:37:57.975Z,27.53
2022-08-07T11:41:04.677Z,27.29
2022-08-07T11:44:11.379Z,28.48
2022-08-07T11:47:21.248Z,27.58
2022-08-07T11:50:32.437Z,27.40
2022-08-07T11:53:27.453Z,27.88
2022-08-07T11:56:48.628Z,27.79
2022-08-07T12:00:10.407Z,26.93
2022-08-07T12:03:45.631Z,26.62
2022-08-07T12:06:39.140Z,26.28
2022-08-07T12:09:28.772Z,25.87
2022-08-07T12:12:14.765Z,25.21
2022-08-07T12:15:35.846Z,25.63
2022-08-07T12:18:16.316Z,25.14
2022-08-07T12:21:21.124Z,25.66
2022-08-07T12:24:38.140Z,26.22
2022-08-07T12:27:18.709Z,26.09
2022-08-07T12:30:06.740Z,26.33
2022-08-07T12:33:09.268Z,25.71
2022-08-07T12:35:58.193Z,25.98
2022-08-07T12:38:42.877Z,25.19
2022-08-07T12:41:16.156Z,25.37
2022-08-07T12:44:02.860Z,25.30
2022-08-07T12:46:55.998Z,25.84
2022-08-07T12:49:52.918Z,26.47
2022-08-07T12:52:48.605Z,27.31
2022-08-07T12:55:41.208Z,27.03
2022-08-07T12:58:28.294Z,26.75
2022-08-07T13:01:28.070Z,26.35
2022-08-07T13:04:38.857Z,26.91
2022-08-07T13:08:13.700Z,26.02
2022-08-07T13:11:28.710Z,25.81
2022-08-07T13:14:09.297Z,25.80
2022-08-07T13:16:51.204Z,26.33
2022-08-07T13:19:45.934Z,26.45
2022-08-07T13:22:36.725Z,25.86
2022-08-07T13:25:23.893Z,26.08
2022-08-07T13:28:11.236Z,26.37
2022-08-07T13:30:52.215Z,26.23
2022-08-07T13:34:34.688Z,26.04
2022-08-07T13:36:39.724Z,26.76
2022-08-07T13:39:49.777Z,26.36
2022-08-07T13:42:06.318Z,25.51
2022-08-07T13:44:37.391Z,26.25
2022-08-07T13:47:09.124Z,26.47
2022-08-07T13:50:34.310Z,25.85
2022-08-07T13:52:38.083Z,25.63
2022-08-07T13:55:26.265Z,25.32
2022-08-07T13:58:28.168Z,25.05
2022-08-07T14:01:10.064Z,24.74
2022-08-07T14:04:07.284Z,24.67
2022-08-07T14:06:40.139Z,24.38
2022-08-07T14:10:02.488Z,24.98
2022-08-07T14:12:29.910Z,25.67
2022-08-07T14:15:23.726Z,25.88
2022-08-07T14:18:28.057Z,25.99
2022-08-07T14:20:54.412Z,26.52
2022-08-07T14:23:31.385Z,26.76
2022-08-07T14:26:29.746Z,25.92
2022-08-07T14:29:08.637Z,25.96
2022-08-07T14:31:57.985Z,25.70
2022-08-07T14:34:32.222Z,25.94
2022-08-07T14:37:03.617Z,25.78
2022-08-07T14:40:17.646Z,26.55
2022-08-07T14:42:32.320Z,26.39
2022-08-07T14:45:21.738Z,26.73
2022-08-07T14:47:51.250Z,27.06
2022-08-07T14:50:27.946Z,27.85
2022-08-07T14:52:57.173Z,27.94
2022-08-07T14:55:55.318Z,28.17
2022-08-07T14:58:32.190Z,29.32
2022-08-07T15:01:22.059Z,29.75
2022-08-07T15:03:52.348Z,29.15
2022-08-07T15:06:34.293Z,29.50
2022-08-07T15:09:47.086Z,29.42
2022-08-07T15:12:26.355Z,29.42
2022-08-07T15:15:22.260Z,29.62
2022-08-07T15:21:59.587Z,30.00
2022-08-07T15:25:15.780Z,30.59
2022-08-07T15:27:17.172Z,30.60
2022-08-07T15:30:08.408Z,30.81
2022-08-07T15:33:03.766Z,30.95
2022-08-07T15:36:01.176Z,30.47
2022-08-07T15:42:44.540Z,30.77
2022-08-07T15:44:15.196Z,31.18
2022-08-07T15:46:52.578Z,31.37
2022-08-07T15:50:05.472Z,31.49
2022-08-07T15:52:30.265Z,31.27
2022-08-07T15:55:04.518Z,31.37
2022-08-07T15:57:48.763Z,31.61
2022-08-07T16:00:22.786Z,31.34
2022-08-07T16:03:20.520Z,31.22
2022-08-07T16:05:51.827Z,31.51
2022-08-07T16:08:31.069Z,30.30
2022-08-07T16:11:29.322Z,31.32
2022-08-07T16:14:17.143Z,31.73
2022-08-07T16:17:01.877Z,32.16
2022-08-07T16:19:41.796Z,32.49
2022-08-07T16:22:38.247Z,32.25
2022-08-07T16:25:54.792Z,32.14
2022-08-07T16:30:07.582Z,31.95
2022-08-07T16:32:34.485Z,31.92
2022-08-07T16:35:51.499Z,31.42
2022-08-07T16:39:00.858Z,31.51
2022-08-07T16:41:59.934Z,32.12
2022-08-07T16:46:47.649Z,32.25
2022-08-07T16:50:27.247Z,31.81
2022-08-07T16:52:52.108Z,31.97
2022-08-07T16:55:47.318Z,32.04
2022-08-07T16:59:10.211Z,31.89
2022-08-07T17:01:41.027Z,31.90
2022-08-07T17:04:24.490Z,31.43
2022-08-07T17:07:02.718Z,32.27
2022-08-07T17:10:05.081Z,32.50
2022-08-07T17:12:44.364Z,32.44
2022-08-07T17:15:15.746Z,32.89
2022-08-07T17:17:48.524Z,32.75
2022-08-07T17:20:42.792Z,32.33
2022-08-07T17:23:22.474Z,32.28
2022-08-07T17:26:36.857Z,32.66
2022-08-07T17:30:14.385Z,33.01
2022-08-07T17:32:36.140Z,32.87
2022-08-07T17:35:49.743Z,32.94
2022-08-07T17:38:51.071Z,32.86
2022-08-07T17:42:03.755Z,32.68
2022-08-07T17:44:41.623Z,32.93
2022-08-07T17:47:42.249Z,32.86
2022-08-07T17:50:22.866Z,34.63
2022-08-07T17:53:05.866Z,34.24
2022-08-07T17:55:59.968Z,33.92
2022-08-07T17:58:51.116Z,33.41
2022-08-07T18:01:45.695Z,33.33
2022-08-07T18:04:34.672Z,34.17
2022-08-07T18:07:34.267Z,33.56
2022-08-07T18:10:28.656Z,33.54
2022-08-07T18:13:16.553Z,34.26
2022-08-07T18:16:32.801Z,33.88
2022-08-07T18:21:03.562Z,33.82
2022-08-07T18:22:47.602Z,34.63
2022-08-07T18:25:40.835Z,34.26
2022-08-07T18:28:34.581Z,34.65
2022-08-07T18:31:50.370Z,34.51
2022-08-07T18:34:53.192Z,35.56
2022-08-07T18:38:56.385Z,35.19
2022-08-07T18:41:09.420Z,35.24
2022-08-07T18:43:57.842Z,35.73
2022-08-07T18:47:05.242Z,35.92
2022-08-07T18:50:35.186Z,36.41
2022-08-07T18:53:06.100Z,36.66
2022-08-07T18:56:31.851Z,36.69
2022-08-07T18:59:09.842Z,37.10
2022-08-07T19:02:36.554Z,37.69
2022-08-07T19:06:02.504Z,37.84
2022-08-07T19:08:29.738Z,38.06
2022-08-07T19:11:36.620Z,38.63
2022-08-07T19:14:19.804Z,38.02
2022-08-07T19:17:06.694Z,38.37
2022-08-07T19:19:48.933Z,38.95
2022-08-07T19:22:44.943Z,38.60
2022-08-07T19:26:22.644Z,38.92
2022-08-07T19:28:58.139Z,39.03
2022-08-07T19:32:01.159Z,39.42
2022-08-07T19:34:34.108Z,40.63
2022-08-07T19:37:17.792Z,41.00
2022-08-07T19:40:08.834Z,41.46
2022-08-07T19:42:44.510Z,41.66
2022-08-07T19:46:00.955Z,41.71
2022-08-07T19:48:18.688Z,41.93
2022-08-07T19:50:53.519Z,42.41
2022-08-07T19:54:30.888Z,42.62
2022-08-07T19:57:51.693Z,43.29
2022-08-07T19:59:24.554Z,43.31
2022-08-07T20:02:15.475Z,43.40
2022-08-07T20:04:48.981Z,44.35
2022-08-07T20:07:23.541Z,44.02
2022-08-07T20:10:34.070Z,44.41
2022-08-07T20:12:49.097Z,44.99
2022-08-07T20:15:22.229Z,44.70
2022-08-07T20:18:01.696Z,45.09
2022-08-07T20:20:35.054Z,45.54
2022-08-07T20:23:23.304Z,45.29
2022-08-07T20:26:02.816Z,45.62
2022-08-07T20:28:31.905Z,46.48
2022-08-07T20:31:02.674Z,46.70
2022-08-07T20:33:36.873Z,47.18
2022-08-07T20:36:10.919Z,47.02
2022-08-07T20:38:53.312Z,47.31
2022-08-07T20:41:38.460Z,48.31
2022-08-07T20:44:13.080Z,48.19
2022-08-07T20:46:44.367Z,48.41
2022-08-07T20:49:59.819Z,48.70
2022-08-07T20:52:17.630Z,48.61
2022-08-07T20:54:56.556Z,48.54
2022-08-07T20:57:35.974Z,48.57
2022-08-07T21:00:09.539Z,49.34
2022-08-07T21:03:01.870Z,49.48
2022-08-07T21:05:54.819Z,49.53
2022-08-07T21:08:46.669Z,49.34
2022-08-07T21:11:22.095Z,48.06
2022-08-07T21:14:32.134Z,48.28
2022-08-07T21:18:00.721Z,48.45
2022-08-07T21:19:51.770Z,49.34
2022-08-07T21:22:51.315Z,49.67
2022-08-07T21:25:58.626Z,49.31
2022-08-07T21:28:50.910Z,49.64
2022-08-07T21:32:42.581Z,49.98
2022-08-07T21:34:48.998Z,51.25
2022-08-07T21:37:57.178Z,51.19
2022-08-07T21:40:39.267Z,51.46
2022-08-07T21:43:47.307Z,51.69
2022-08-07T21:46:34.524Z,52.07
2022-08-07T21:49:16.797Z,52.49
2022-08-07T21:51:51.354Z,52.51
2022-08-07T21:54:59.662Z,52.54
2022-08-07T21:58:18.396Z,53.18
2022-08-07T22:01:08.438Z,53.42
2022-08-07T22:04:02.558Z,53.68
2022-08-07T22:06:46.252Z,53.57
2022-08-07T22:09:25.401Z,53.91
2022-08-07T22:12:07.059Z,53.92
2022-08-07T22:15:00.526Z,54.08
2022-08-07T22:17:37.917Z,54.74
2022-08-07T22:20:23.540Z,54.83
2022-08-07T22:23:01.807Z,55.02
2022-08-07T22:25:43.707Z,55.28
2022-08-07T22:28:34.094Z,56.26
2022-08-07T22:31:45.286Z,56.37
2022-08-07T22:34:29.095Z,57.12
2022-08-07T22:38:03.211Z,57.40
2022-08-07T22:40:32.490Z,56.87
2022-08-07T22:43:34.052Z,57.75
2022-08-07T22:46:47.065Z,57.72
2022-08-07T22:49:27.364Z,57.35
2022-08-07T22:52:40.060Z,57.36
2022-08-07T22:55:43.180Z,57.16
2022-08-07T22:58:50.716Z,57.72
2022-08-07T23:01:54.480Z,58.35
2022-08-07T23:06:09.121Z,58.76
2022-08-07T23:08:33.489Z,59.57
2022-08-07T23:11:21.588Z,60.00
2022-08-07T23:14:16.904Z,59.73
2022-08-07T23:17:30.440Z,59.88
2022-08-07T23:20:51.744Z,59.83
2022-08-07T23:24:05.260Z,61.04
2022-08-07T23:26:27.813Z,60.49
2022-08-07T23:29:43.218Z,60.73
2022-08-07T23:34:19.444Z,60.46
2022-08-07T23:36:05.962Z,61.33
2022-08-07T23:39:02.073Z,61.52
2022-08-07T23:42:05.056Z,61.65
2022-08-07T23:45:03.474Z,61.61
2022-08-07T23:48:36.497Z,61.84
2022-08-07T23:53:01.378Z,62.27
2022-08-07T23:54:54.291Z,62.39
2022-08-07T23:57:47.954Z,62.74
